sensor_id;sensor_type;location;lat;lon;timestamp;P1;durP1;ratioP1;P2;durP2;ratioP2
23624;SDS011;11989;47.872;12.014;2023-04-09T00:00:02;21.23;;;15.20;;
23624;SDS011;11989;47.872;12.014;2023-04-09T00:02:29;22.40;;;16.00;;
23624;SDS011;11989;47.872;12.014;2023-04-09T00:04:55;21.23;;;16.23;;
23624;SDS011;11989;47.872;12.014;2023-04-09T00:07:21;20.23;;;16.10;;
23624;SDS011;11989;47.872;12.014;2023-04-09T00:09:47;24.10;;;17.15;;
23624;SDS011;11989;47.872;12.014;2023-04-09T00:12:13;24.52;;;17.02;;
23624;SDS011;11989;47.872;12.014;2023-04-09T00:14:39;21.15;;;15.55;;
23624;SDS011;11989;47.872;12.014;2023-04-09T00:17:05;20.38;;;15.43;;
23624;SDS011;11989;47.872;12.014;2023-04-09T00:19:31;20.60;;;15.93;;
23624;SDS011;11989;47.872;12.014;2023-04-09T00:21:57;20.67;;;15.35;;
23624;SDS011;11989;47.872;12.014;2023-04-09T00:24:23;21.60;;;15.13;;
23624;SDS011;11989;47.872;12.014;2023-04-09T00:26:50;20.02;;;14.95;;
23624;SDS011;11989;47.872;12.014;2023-04-09T00:29:17;20.38;;;14.88;;
23624;SDS011;11989;47.872;12.014;2023-04-09T00:31:43;20.25;;;14.88;;
23624;SDS011;11989;47.872;12.014;2023-04-09T00:34:09;25.00;;;17.23;;
23624;SDS011;11989;47.872;12.014;2023-04-09T00:36:35;23.40;;;14.68;;
23624;SDS011;11989;47.872;12.014;2023-04-09T00:39:01;23.20;;;15.73;;
23624;SDS011;11989;47.872;12.014;2023-04-09T00:41:27;19.98;;;14.70;;
23624;SDS011;11989;47.872;12.014;2023-04-09T00:43:55;20.95;;;15.20;;
23624;SDS011;11989;47.872;12.014;2023-04-09T00:46:21;21.48;;;15.93;;
23624;SDS011;11989;47.872;12.014;2023-04-09T00:48:47;22.52;;;15.45;;
23624;SDS011;11989;47.872;12.014;2023-04-09T00:51:13;21.02;;;15.60;;
23624;SDS011;11989;47.872;12.014;2023-04-09T00:53:39;21.60;;;14.93;;
23624;SDS011;11989;47.872;12.014;2023-04-09T00:56:07;23.23;;;15.63;;
23624;SDS011;11989;47.872;12.014;2023-04-09T00:58:34;21.58;;;15.45;;
23624;SDS011;11989;47.872;12.014;2023-04-09T01:01:00;22.05;;;15.15;;
23624;SDS011;11989;47.872;12.014;2023-04-09T01:03:27;20.88;;;15.05;;
23624;SDS011;11989;47.872;12.014;2023-04-09T01:13:30;23.30;;;16.13;;
23624;SDS011;11989;47.872;12.014;2023-04-09T01:15:59;25.52;;;17.20;;
23624;SDS011;11989;47.872;12.014;2023-04-09T01:18:39;24.58;;;17.08;;
23624;SDS011;11989;47.872;12.014;2023-04-09T01:21:18;26.00;;;16.65;;
23624;SDS011;11989;47.872;12.014;2023-04-09T01:28:58;24.55;;;17.42;;
23624;SDS011;11989;47.872;12.014;2023-04-09T01:31:33;24.33;;;16.65;;
23624;SDS011;11989;47.872;12.014;2023-04-09T01:34:00;24.35;;;16.98;;
23624;SDS011;11989;47.872;12.014;2023-04-09T01:36:26;25.17;;;17.58;;
23624;SDS011;11989;47.872;12.014;2023-04-09T01:38:54;27.52;;;18.58;;
23624;SDS011;11989;47.872;12.014;2023-04-09T01:41:20;23.80;;;17.25;;
23624;SDS011;11989;47.872;12.014;2023-04-09T01:43:50;23.60;;;17.08;;
23624;SDS011;11989;47.872;12.014;2023-04-09T01:46:17;26.50;;;18.42;;
23624;SDS011;11989;47.872;12.014;2023-04-09T01:48:43;25.40;;;17.35;;
23624;SDS011;11989;47.872;12.014;2023-04-09T01:51:10;25.90;;;17.13;;
23624;SDS011;11989;47.872;12.014;2023-04-09T01:53:38;25.63;;;18.17;;
23624;SDS011;11989;47.872;12.014;2023-04-09T01:56:05;24.95;;;17.27;;
23624;SDS011;11989;47.872;12.014;2023-04-09T01:58:31;24.23;;;16.88;;
23624;SDS011;11989;47.872;12.014;2023-04-09T02:01:04;23.13;;;17.27;;
23624;SDS011;11989;47.872;12.014;2023-04-09T02:03:36;25.92;;;17.92;;
23624;SDS011;11989;47.872;12.014;2023-04-09T02:08:28;25.02;;;17.45;;
23624;SDS011;11989;47.872;12.014;2023-04-09T02:10:55;25.33;;;17.98;;
23624;SDS011;11989;47.872;12.014;2023-04-09T02:13:22;26.65;;;18.33;;
23624;SDS011;11989;47.872;12.014;2023-04-09T02:15:49;25.60;;;16.92;;
23624;SDS011;11989;47.872;12.014;2023-04-09T02:18:23;21.88;;;16.05;;
23624;SDS011;11989;47.872;12.014;2023-04-09T02:20:49;23.77;;;16.95;;
23624;SDS011;11989;47.872;12.014;2023-04-09T02:23:15;25.10;;;17.23;;
23624;SDS011;11989;47.872;12.014;2023-04-09T02:25:42;32.47;;;18.02;;
23624;SDS011;11989;47.872;12.014;2023-04-09T02:28:08;26.13;;;17.95;;
23624;SDS011;11989;47.872;12.014;2023-04-09T02:30:34;23.75;;;16.23;;
23624;SDS011;11989;47.872;12.014;2023-04-09T02:33:00;24.85;;;16.85;;
23624;SDS011;11989;47.872;12.014;2023-04-09T02:35:26;20.63;;;14.75;;
23624;SDS011;11989;47.872;12.014;2023-04-09T02:37:52;24.45;;;15.82;;
23624;SDS011;11989;47.872;12.014;2023-04-09T02:40:19;22.45;;;15.73;;
23624;SDS011;11989;47.872;12.014;2023-04-09T02:42:45;22.40;;;16.05;;
23624;SDS011;11989;47.872;12.014;2023-04-09T02:45:11;21.65;;;15.70;;
23624;SDS011;11989;47.872;12.014;2023-04-09T02:47:37;23.75;;;16.00;;
23624;SDS011;11989;47.872;12.014;2023-04-09T02:50:04;20.33;;;14.77;;
23624;SDS011;11989;47.872;12.014;2023-04-09T02:52:30;20.73;;;15.38;;
23624;SDS011;11989;47.872;12.014;2023-04-09T02:54:56;21.10;;;14.48;;
23624;SDS011;11989;47.872;12.014;2023-04-09T02:57:22;22.65;;;16.17;;
23624;SDS011;11989;47.872;12.014;2023-04-09T02:59:48;23.48;;;16.77;;
23624;SDS011;11989;47.872;12.014;2023-04-09T03:02:14;22.88;;;16.25;;
23624;SDS011;11989;47.872;12.014;2023-04-09T03:04:40;23.10;;;15.95;;
23624;SDS011;11989;47.872;12.014;2023-04-09T03:07:06;22.45;;;15.80;;
23624;SDS011;11989;47.872;12.014;2023-04-09T03:09:32;20.90;;;14.38;;
23624;SDS011;11989;47.872;12.014;2023-04-09T03:11:58;21.75;;;15.90;;
23624;SDS011;11989;47.872;12.014;2023-04-09T03:14:26;21.90;;;15.85;;
23624;SDS011;11989;47.872;12.014;2023-04-09T03:16:52;24.30;;;16.50;;
23624;SDS011;11989;47.872;12.014;2023-04-09T03:19:18;23.00;;;15.48;;
23624;SDS011;11989;47.872;12.014;2023-04-09T03:21:44;23.35;;;14.57;;
23624;SDS011;11989;47.872;12.014;2023-04-09T03:24:13;22.08;;;15.77;;
23624;SDS011;11989;47.872;12.014;2023-04-09T03:26:39;21.77;;;15.35;;
23624;SDS011;11989;47.872;12.014;2023-04-09T03:29:05;22.38;;;15.38;;
23624;SDS011;11989;47.872;12.014;2023-04-09T03:31:32;21.75;;;15.02;;
23624;SDS011;11989;47.872;12.014;2023-04-09T03:33:58;23.95;;;15.00;;
23624;SDS011;11989;47.872;12.014;2023-04-09T03:36:24;24.13;;;16.20;;
23624;SDS011;11989;47.872;12.014;2023-04-09T03:38:51;23.48;;;15.98;;
23624;SDS011;11989;47.872;12.014;2023-04-09T03:41:18;26.25;;;16.90;;
23624;SDS011;11989;47.872;12.014;2023-04-09T03:43:44;25.38;;;16.25;;
23624;SDS011;11989;47.872;12.014;2023-04-09T03:46:13;21.95;;;15.80;;
23624;SDS011;11989;47.872;12.014;2023-04-09T03:48:40;25.05;;;16.42;;
23624;SDS011;11989;47.872;12.014;2023-04-09T03:51:07;26.45;;;16.10;;
23624;SDS011;11989;47.872;12.014;2023-04-09T03:53:35;24.42;;;16.25;;
23624;SDS011;11989;47.872;12.014;2023-04-09T03:56:01;25.65;;;16.48;;
23624;SDS011;11989;47.872;12.014;2023-04-09T03:58:27;24.60;;;15.05;;
23624;SDS011;11989;47.872;12.014;2023-04-09T04:00:53;27.13;;;17.65;;
23624;SDS011;11989;47.872;12.014;2023-04-09T04:03:19;25.77;;;16.70;;
23624;SDS011;11989;47.872;12.014;2023-04-09T04:05:46;30.35;;;16.63;;
23624;SDS011;11989;47.872;12.014;2023-04-09T04:08:12;29.40;;;16.38;;
23624;SDS011;11989;47.872;12.014;2023-04-09T04:10:38;28.20;;;16.90;;
23624;SDS011;11989;47.872;12.014;2023-04-09T04:13:07;32.50;;;16.58;;
23624;SDS011;11989;47.872;12.014;2023-04-09T04:15:33;30.45;;;17.50;;
23624;SDS011;11989;47.872;12.014;2023-04-09T04:18:04;28.00;;;16.05;;
23624;SDS011;11989;47.872;12.014;2023-04-09T04:20:31;28.63;;;17.55;;
23624;SDS011;11989;47.872;12.014;2023-04-09T04:22:57;86.40;;;22.00;;
23624;SDS011;11989;47.872;12.014;2023-04-09T04:25:23;34.28;;;18.65;;
23624;SDS011;11989;47.872;12.014;2023-04-09T04:27:49;62.83;;;19.52;;
23624;SDS011;11989;47.872;12.014;2023-04-09T04:30:15;32.40;;;17.35;;
23624;SDS011;11989;47.872;12.014;2023-04-09T04:32:42;29.15;;;17.70;;
23624;SDS011;11989;47.872;12.014;2023-04-09T04:35:08;37.00;;;19.52;;
23624;SDS011;11989;47.872;12.014;2023-04-09T04:37:34;31.38;;;18.55;;
23624;SDS011;11989;47.872;12.014;2023-04-09T04:40:01;33.75;;;17.08;;
23624;SDS011;11989;47.872;12.014;2023-04-09T04:42:28;35.38;;;18.27;;
23624;SDS011;11989;47.872;12.014;2023-04-09T04:44:54;57.95;;;19.52;;
23624;SDS011;11989;47.872;12.014;2023-04-09T04:47:20;31.02;;;17.52;;
23624;SDS011;11989;47.872;12.014;2023-04-09T04:49:46;32.17;;;18.92;;
23624;SDS011;11989;47.872;12.014;2023-04-09T04:52:12;32.53;;;19.15;;
23624;SDS011;11989;47.872;12.014;2023-04-09T04:54:38;29.35;;;17.00;;
23624;SDS011;11989;47.872;12.014;2023-04-09T04:57:04;50.60;;;19.23;;
23624;SDS011;11989;47.872;12.014;2023-04-09T04:59:30;39.28;;;18.25;;
23624;SDS011;11989;47.872;12.014;2023-04-09T05:01:57;38.00;;;17.83;;
23624;SDS011;11989;47.872;12.014;2023-04-09T05:04:23;30.95;;;16.50;;
23624;SDS011;11989;47.872;12.014;2023-04-09T05:06:49;34.83;;;17.58;;
23624;SDS011;11989;47.872;12.014;2023-04-09T05:09:15;36.80;;;19.45;;
23624;SDS011;11989;47.872;12.014;2023-04-09T05:11:41;34.08;;;17.70;;
23624;SDS011;11989;47.872;12.014;2023-04-09T05:14:07;31.40;;;17.55;;
23624;SDS011;11989;47.872;12.014;2023-04-09T05:16:33;34.15;;;18.15;;
23624;SDS011;11989;47.872;12.014;2023-04-09T05:19:00;36.75;;;17.67;;
23624;SDS011;11989;47.872;12.014;2023-04-09T05:21:26;38.30;;;19.42;;
23624;SDS011;11989;47.872;12.014;2023-04-09T05:23:52;51.63;;;23.60;;
23624;SDS011;11989;47.872;12.014;2023-04-09T05:26:18;39.15;;;21.92;;
23624;SDS011;11989;47.872;12.014;2023-04-09T05:28:45;31.13;;;18.10;;
23624;SDS011;11989;47.872;12.014;2023-04-09T05:31:11;26.80;;;17.40;;
23624;SDS011;11989;47.872;12.014;2023-04-09T05:33:39;28.95;;;17.35;;
23624;SDS011;11989;47.872;12.014;2023-04-09T05:36:05;34.67;;;17.73;;
23624;SDS011;11989;47.872;12.014;2023-04-09T05:38:31;33.90;;;16.50;;
23624;SDS011;11989;47.872;12.014;2023-04-09T05:40:58;33.22;;;17.10;;
23624;SDS011;11989;47.872;12.014;2023-04-09T05:43:24;49.47;;;17.85;;
23624;SDS011;11989;47.872;12.014;2023-04-09T05:45:50;41.45;;;17.17;;
